Time;durP1;ratioP1;P1;durP2;ratioP2;P2;SDS_P1;SDS_P2;PMS_P1;PMS_P2;Temp;Humidity;BMP_temperature;BMP_pressure;BME280_temperature;BME280_humidity;BME280_pressure;Samples;Min_cycle;Max_cycle;Signal;HPM_P1;HPM_P2
2021/04/02 00:00:41;;;;;;;16.70;8.85;;;14.20;50.70;;;;;;5032828;28;20022;-76
2021/04/02 00:03:21;;;;;;;14.98;8.50;;;14.30;50.50;;;;;;5032784;28;20033;-78
2021/04/02 00:05:47;;;;;;;17.83;8.43;;;14.20;49.80;;;;;;5032794;28;20095;-78
2021/04/02 00:08:13;;;;;;;18.40;8.48;;;14.10;50.50;;;;;;5032601;28;20505;-76
2021/04/02 00:10:51;;;;;;;18.05;8.45;;;14.20;51.00;;;;;;5032432;28;20079;-77
2021/04/02 00:13:22;;;;;;;17.23;8.85;;;14.20;50.20;;;;;;5014845;28;20056;-77
2021/04/02 00:15:49;;;;;;;19.65;8.85;;;14.10;50.20;;;;;;5032475;28;20541;-77
2021/04/02 00:18:16;;;;;;;13.05;8.23;;;14.10;50.20;;;;;;5032649;28;20101;-76
2021/04/02 00:20:42;;;;;;;16.35;8.40;;;14.00;50.30;;;;;;5032562;28;20443;-77
2021/04/02 00:23:08;;;;;;;15.07;8.45;;;13.90;50.30;;;;;;5014962;28;20061;-76
2021/04/02 00:25:35;;;;;;;19.38;8.90;;;14.00;50.50;;;;;;5033063;28;20021;-77
2021/04/02 00:28:01;;;;;;;21.08;8.13;;;14.00;50.40;;;;;;5017056;28;20160;-77
2021/04/02 00:30:34;;;;;;;19.98;8.65;;;14.00;51.30;;;;;;5051263;28;20018;-76
2021/04/02 00:32:59;;;;;;;17.58;7.88;;;13.90;50.50;;;;;;5043496;28;20084;-78
2021/04/02 00:35:25;;;;;;;16.23;8.05;;;13.90;50.70;;;;;;5016609;28;20041;-78
2021/04/02 00:37:50;;;;;;;13.73;7.00;;;14.10;50.50;;;;;;5033163;28;20017;-78
2021/04/02 00:40:21;;;;;;;16.00;7.57;;;14.00;50.80;;;;;;5035550;28;20032;-78
2021/04/02 00:42:48;;;;;;;14.85;7.68;;;13.90;50.30;;;;;;5035834;28;20021;-78
2021/04/02 00:45:18;;;;;;;15.75;7.35;;;13.80;50.50;;;;;;5035891;28;20108;-78
2021/04/02 00:47:45;;;;;;;16.63;7.25;;;13.80;50.90;;;;;;5035599;28;20033;-77
2021/04/02 00:50:14;;;;;;;15.88;7.20;;;13.90;51.20;;;;;;5018394;28;20022;-78
2021/04/02 00:52:40;;;;;;;16.00;7.82;;;13.90;51.20;;;;;;5035596;28;20116;-78
2021/04/02 00:55:06;;;;;;;15.73;7.88;;;13.80;50.90;;;;;;5035727;28;20053;-78
2021/04/02 00:57:33;;;;;;;14.68;6.72;;;13.70;51.10;;;;;;5035713;28;20025;-78
2021/04/02 00:59:59;;;;;;;15.82;7.68;;;13.60;51.50;;;;;;5035548;28;20040;-77
2021/04/02 01:02:26;;;;;;;19.45;7.35;;;13.50;51.50;;;;;;5017927;28;20053;-77
2021/04/02 01:04:52;;;;;;;17.58;7.38;;;13.50;51.90;;;;;;5040196;28;20029;-78
2021/04/02 01:07:18;;;;;;;15.32;7.18;;;13.30;52.10;;;;;;5038385;28;20106;-77
2021/04/02 01:09:45;;;;;;;19.70;7.25;;;13.20;52.00;;;;;;5018928;28;20025;-76
2021/04/02 01:12:11;;;;;;;17.00;7.90;;;13.00;52.00;;;;;;5018356;28;20028;-76
2021/04/02 01:14:36;;;;;;;14.75;7.45;;;12.70;52.40;;;;;;5017833;28;20080;-76
2021/04/02 01:17:02;;;;;;;13.65;7.38;;;12.50;53.00;;;;;;5017561;28;20127;-76
2021/04/02 01:19:31;;;;;;;16.60;7.50;;;12.30;53.60;;;;;;5017421;28;20028;-75
2021/04/02 01:22:02;;;;;;;20.55;9.00;;;12.00;54.30;;;;;;5017397;28;20120;-75
2021/04/02 01:24:52;;;;;;;17.42;8.63;;;11.90;55.20;;;;;;5034934;28;20020;-75
2021/04/02 01:27:26;;;;;;;14.70;8.02;;;11.80;55.50;;;;;;5017520;28;20022;-75
2021/04/02 01:29:56;;;;;;;18.30;7.97;;;11.80;55.70;;;;;;5017183;28;20022;-75
2021/04/02 01:32:26;;;;;;;18.70;8.27;;;11.70;56.00;;;;;;5017054;28;20138;-75
2021/04/02 01:34:57;;;;;;;20.83;9.20;;;11.60;56.10;;;;;;5017280;28;20136;-75
2021/04/02 01:37:40;;;;;;;26.67;8.65;;;11.60;56.40;;;;;;5034944;28;20029;-74
2021/04/02 01:40:10;;;;;;;19.23;8.82;;;11.50;56.60;;;;;;5016977;28;20025;-75
2021/04/02 01:42:41;;;;;;;19.88;9.05;;;11.50;56.80;;;;;;5016864;28;20560;-75
2021/04/02 01:45:09;;;;;;;20.88;9.32;;;11.50;56.90;;;;;;5017085;28;20032;-75
2021/04/02 01:47:37;;;;;;;20.33;9.95;;;11.40;57.80;;;;;;5017018;28;20030;-75
2021/04/02 01:50:04;;;;;;;18.77;8.90;;;11.30;57.20;;;;;;5015991;28;20021;-75
2021/04/02 01:52:31;;;;;;;14.35;8.57;;;11.20;57.40;;;;;;5016567;28;20049;-75
2021/04/02 01:54:57;;;;;;;17.35;8.90;;;11.20;57.80;;;;;;5016746;28;20032;-74
2021/04/02 01:57:24;;;;;;;19.10;8.63;;;11.20;57.90;;;;;;5034569;28;20052;-74
2021/04/02 01:59:51;;;;;;;21.27;9.32;;;11.10;58.30;;;;;;5016649;28;20029;-74
2021/04/02 02:02:17;;;;;;;18.13;9.10;;;11.20;58.60;;;;;;5016459;28;20453;-74
2021/04/02 02:04:45;;;;;;;18.20;8.68;;;11.20;58.50;;;;;;5016610;28;20022;-74
2021/04/02 02:07:12;;;;;;;22.27;9.23;;;11.20;58.50;;;;;;5000032;28;20049;-74
2021/04/02 02:09:41;;;;;;;22.52;8.77;;;11.10;58.50;;;;;;5016501;28;20028;-74
2021/04/02 02:12:13;;;;;;;20.88;9.43;;;11.00;58.50;;;;;;5016499;28;20026;-75
2021/04/02 02:14:41;;;;;;;16.75;8.50;;;11.10;58.60;;;;;;5016300;28;20394;-74
2021/04/02 02:17:09;;;;;;;17.10;8.50;;;11.00;58.50;;;;;;5016415;28;20505;-73
2021/04/02 02:19:38;;;;;;;28.20;9.70;;;10.90;58.50;;;;;;5015986;28;20079;-74
2021/04/02 02:22:07;;;;;;;19.58;10.15;;;10.90;58.70;;;;;;5016239;28;20033;-75
2021/04/02 02:24:36;;;;;;;16.90;8.88;;;10.80;59.00;;;;;;5016170;28;20024;-75
2021/04/02 02:27:04;;;;;;;22.60;9.00;;;10.80;59.20;;;;;;5033774;28;20036;-74
2021/04/02 02:29:31;;;;;;;21.48;10.02;;;10.80;59.30;;;;;;5016220;28;20060;-75
2021/04/02 02:31:56;;;;;;;20.92;10.25;;;10.60;59.30;;;;;;5033781;28;20041;-75
2021/04/02 02:34:22;;;;;;;25.40;10.13;;;10.50;59.80;;;;;;5016122;28;20017;-73
2021/04/02 02:36:48;;;;;;;22.85;9.50;;;10.40;61.00;;;;;;5033895;28;20030;-73
2021/04/02 02:39:15;;;;;;;19.48;8.85;;;10.40;60.30;;;;;;5033767;28;20034;-73
2021/04/02 02:41:42;;;;;;;29.40;10.48;;;10.40;60.40;;;;;;5015746;28;20065;-75
2021/04/02 02:44:08;;;;;;;20.52;9.50;;;10.40;60.40;;;;;;5015889;28;20021;-74
2021/04/02 02:46:34;;;;;;;24.08;9.88;;;10.40;60.60;;;;;;5033507;28;20021;-74
2021/04/02 02:49:07;;;;;;;21.92;10.20;;;10.40;60.60;;;;;;5015756;28;20120;-75
2021/04/02 02:51:34;;;;;;;22.10;9.95;;;10.40;60.70;;;;;;5015859;28;20025;-74
2021/04/02 02:54:04;;;;;;;21.33;10.20;;;10.30;61.00;;;;;;5015528;28;20025;-75
2021/04/02 02:56:31;;;;;;;19.55;10.43;;;10.30;61.10;;;;;;5015859;28;20017;-73
2021/04/02 02:59:00;;;;;;;20.95;10.70;;;10.30;61.40;;;;;;5015641;28;20043;-73
2021/04/02 03:01:27;;;;;;;25.20;11.35;;;10.30;61.60;;;;;;5015365;28;20071;-73
2021/04/02 03:03:53;;;;;;;22.83;10.27;;;10.30;61.60;;;;;;5015228;28;20033;-74
2021/04/02 03:06:22;;;;;;;24.95;10.75;;;10.30;62.50;;;;;;5015628;28;20107;-74
2021/04/02 03:08:50;;;;;;;27.98;11.82;;;10.20;62.00;;;;;;5015571;28;20144;-74
2021/04/02 03:11:18;;;;;;;24.55;11.63;;;10.20;62.50;;;;;;5015673;28;20032;-74
2021/04/02 03:13:45;;;;;;;22.30;10.90;;;10.20;62.20;;;;;;5020741;28;20033;-74
2021/04/02 03:16:11;;;;;;;24.20;10.90;;;10.20;62.10;;;;;;5036950;28;20033;-75
2021/04/02 03:18:38;;;;;;;30.15;13.68;;;10.20;62.10;;;;;;5032046;28;20033;-74
2021/04/02 03:21:06;;;;;;;28.48;12.77;;;10.10;63.00;;;;;;5015544;28;20103;-74
2021/04/02 03:23:32;;;;;;;31.58;12.48;;;10.00;62.10;;;;;;5015470;28;20029;-74
2021/04/02 03:25:59;;;;;;;23.75;11.40;;;10.10;62.30;;;;;;5015410;28;20025;-74
2021/04/02 03:28:26;;;;;;;24.15;12.55;;;10.00;62.30;;;;;;5015421;28;20029;-74
2021/04/02 03:30:51;;;;;;;25.55;12.13;;;10.00;62.50;;;;;;5015381;28;20512;-73
2021/04/02 03:33:29;;;;;;;24.25;12.27;;;10.00;62.40;;;;;;5015087;28;20029;-74
2021/04/02 03:36:06;;;;;;;25.13;12.15;;;10.00;62.20;;;;;;5009144;28;20481;-73
2021/04/02 03:38:37;;;;;;;24.92;12.15;;;10.00;62.20;;;;;;5032845;28;20505;-74
2021/04/02 03:41:09;;;;;;;25.70;11.63;;;10.00;62.10;;;;;;5015023;28;20508;-74
2021/04/02 03:43:36;;;;;;;29.70;12.70;;;10.00;62.00;;;;;;5014975;28;20033;-74
2021/04/02 03:46:02;;;;;;;33.05;12.52;;;9.90;62.30;;;;;;5014804;28;20026;-74
2021/04/02 03:48:32;;;;;;;25.05;12.88;;;9.90;62.60;;;;;;5014844;28;20025;-74
2021/04/02 03:51:00;;;;;;;27.63;13.15;;;9.90;62.70;;;;;;5032782;28;20051;-74
2021/04/02 03:53:31;;;;;;;30.30;14.43;;;9.90;62.90;;;;;;5014847;28;20028;-74
2021/04/02 03:55:59;;;;;;;23.92;13.95;;;9.90;62.90;;;;;;5014928;28;20374;-74
2021/04/02 03:58:26;;;;;;;32.25;14.75;;;9.80;62.90;;;;;;5015099;28;20036;-74
2021/04/02 04:01:23;;;;;;;23.70;12.95;;;9.80;63.30;;;;;;5032526;28;20029;-74
2021/04/02 04:03:51;;;;;;;30.52;13.98;;;9.70;63.50;;;;;;5016549;28;20441;-74
2021/04/02 04:06:20;;;;;;;31.27;15.32;;;9.70;63.60;;;;;;5035591;28;20471;-75
2021/04/02 04:08:51;;;;;;;33.08;15.57;;;9.70;63.70;;;;;;5027100;28;20053;-75
2021/04/02 04:11:18;;;;;;;31.50;15.45;;;9.70;63.90;;;;;;5030222;28;20021;-76
2021/04/02 04:13:47;;;;;;;27.33;14.40;;;9.60;64.00;;;;;;5019475;28;20022;-76
2021/04/02 04:16:15;;;;;;;30.17;14.40;;;9.70;64.10;;;;;;5019168;28;20466;-75
2021/04/02 04:18:44;;;;;;;30.88;14.60;;;9.60;63.80;;;;;;5018774;28;20026;-74
2021/04/02 04:21:11;;;;;;;29.48;14.65;;;9.60;63.70;;;;;;5018572;28;20029;-75
2021/04/02 04:23:39;;;;;;;32.00;15.10;;;9.60;63.80;;;;;;5018301;28;20028;-76
2021/04/02 04:26:06;;;;;;;28.75;15.40;;;9.60;64.00;;;;;;5018207;28;20022;-74
2021/04/02 04:28:33;;;;;;;28.88;15.63;;;9.50;64.40;;;;;;5018562;28;20116;-75
2021/04/02 04:31:02;;;;;;;30.42;14.95;;;9.40;65.10;;;;;;5018172;28;20044;-77
2021/04/02 04:33:29;;;;;;;39.03;17.98;;;9.30;65.60;;;;;;5018403;28;20021;-76
2021/04/02 04:35:58;;;;;;;38.78;17.05;;;9.20;65.60;;;;;;5018048;28;20486;-77
2021/04/02 04:38:24;;;;;;;34.22;17.30;;;9.20;65.70;;;;;;5018377;28;20076;-76
2021/04/02 04:40:53;;;;;;;31.50;16.88;;;9.20;65.60;;;;;;5035910;28;20497;-76
2021/04/02 04:43:19;;;;;;;31.27;17.55;;;9.20;65.80;;;;;;5018064;28;20032;-76
2021/04/02 04:45:45;;;;;;;29.20;16.33;;;9.20;65.80;;;;;;5018214;28;20482;-75
2021/04/02 04:48:11;;;;;;;37.85;17.92;;;9.20;65.80;;;;;;5035884;28;20064;-75
2021/04/02 04:50:37;;;;;;;34.97;17.00;;;9.20;65.70;;;;;;5035638;28;20057;-75
2021/04/02 04:53:16;;;;;;;34.40;18.45;;;9.20;65.70;;;;;;5018012;28;20028;-75
2021/04/02 04:55:44;;;;;;;42.00;19.85;;;9.20;66.00;;;;;;5017911;28;20032;-75
2021/04/02 04:58:13;;;;;;;39.20;17.92;;;9.20;66.00;;;;;;5018143;28;20034;-76
2021/04/02 05:00:42;;;;;;;40.72;17.55;;;9.00;66.20;;;;;;5017733;28;20029;-76
2021/04/02 05:03:10;;;;;;;33.22;18.15;;;9.00;67.10;;;;;;5018194;28;20025;-76
2021/04/02 05:05:39;;;;;;;33.88;17.45;;;9.00;66.40;;;;;;5018006;28;20018;-76
2021/04/02 05:08:06;;;;;;;36.13;18.33;;;9.10;66.60;;;;;;5017705;28;20049;-75
2021/04/02 05:10:33;;;;;;;33.50;17.85;;;9.10;66.80;;;;;;5035644;28;20053;-75
2021/04/02 05:13:01;;;;;;;31.52;17.85;;;9.00;66.90;;;;;;5017560;28;20525;-76
2021/04/02 05:15:27;;;;;;;38.67;20.40;;;9.00;67.10;;;;;;5017930;28;20120;-76
2021/04/02 05:17:54;;;;;;;43.85;20.88;;;9.00;67.00;;;;;;5003077;28;20083;-76
2021/04/02 05:20:26;;;;;;;44.72;20.75;;;8.90;67.00;;;;;;5017941;28;20056;-76
2021/04/02 05:22:51;;;;;;;43.05;20.33;;;8.90;67.90;;;;;;5022955;28;20044;-75
2021/04/02 05:25:17;;;;;;;40.05;20.15;;;8.90;66.90;;;;;;5018142;28;20026;-76
2021/04/02 05:27:43;;;;;;;33.88;18.00;;;8.90;66.50;;;;;;5023335;28;20556;-75
2021/04/02 05:30:09;;;;;;;36.58;19.27;;;9.00;66.40;;;;;;5021433;28;20025;-76
2021/04/02 05:32:34;;;;;;;43.30;20.25;;;9.00;66.30;;;;;;5021292;28;20022;-76
2021/04/02 05:35:00;;;;;;;39.50;21.10;;;9.00;66.10;;;;;;5034737;28;20048;-76
2021/04/02 05:37:25;;;;;;;42.95;21.35;;;9.00;66.30;;;;;;5032575;28;20116;-75
2021/04/02 05:39:51;;;;;;;48.63;22.15;;;9.00;66.30;;;;;;5026527;28;20025;-74
2021/04/02 05:42:22;;;;;;;37.90;20.25;;;9.00;66.30;;;;;;5034266;28;20037;-74
2021/04/02 05:44:50;;;;;;;44.33;23.48;;;9.00;66.30;;;;;;5022662;28;20025;-75
2021/04/02 05:47:17;;;;;;;49.58;25.60;;;9.00;66.40;;;;;;5019426;28;20032;-75
2021/04/02 05:49:44;;;;;;;49.47;26.05;;;9.00;66.20;;;;;;5024643;28;20018;-74
2021/04/02 05:52:11;;;;;;;48.28;25.10;;;9.10;66.10;;;;;;5020202;28;20030;-74
2021/04/02 05:54:41;;;;;;;39.90;22.73;;;9.10;65.90;;;;;;5020337;28;20055;-74
2021/04/02 05:57:08;;;;;;;50.63;25.80;;;9.20;66.60;;;;;;5018818;28;20485;-74
2021/04/02 05:59:36;;;;;;;45.17;22.13;;;9.30;65.70;;;;;;5017499;28;20041;-75
2021/04/02 06:02:02;;;;;;;44.90;22.55;;;9.30;65.50;;;;;;5017269;28;20041;-74
2021/04/02 06:04:29;;;;;;;44.42;23.65;;;9.40;65.40;;;;;;5017709;28;20021;-76
2021/04/02 06:06:55;;;;;;;40.55;23.17;;;9.40;65.20;;;;;;5017590;28;20047;-77
2021/04/02 06:09:23;;;;;;;47.20;23.27;;;9.50;65.10;;;;;;5018124;28;20017;-77
2021/04/02 06:11:49;;;;;;;44.50;24.20;;;9.50;65.00;;;;;;5017963;28;20124;-77
2021/04/02 06:14:15;;;;;;;42.97;22.50;;;9.60;64.80;;;;;;5018656;28;20052;-76
2021/04/02 06:16:52;;;;;;;43.00;22.80;;;9.60;64.60;;;;;;5036284;28;20029;-76
2021/04/02 06:19:18;;;;;;;38.67;21.35;;;9.60;64.50;;;;;;5038090;28;20103;-76
2021/04/02 06:21:53;;;;;;;42.80;22.83;;;9.70;64.50;;;;;;5032769;28;20033;-77
2021/04/02 06:24:42;;;;;;;43.05;24.08;;;9.70;64.40;;;;;;5023210;28;20037;-76
2021/04/02 06:27:13;;;;;;;47.03;26.75;;;9.80;64.20;;;;;;5017760;28;20026;-76
2021/04/02 06:29:41;;;;;;;49.38;26.58;;;9.90;64.10;;;;;;5017106;28;20022;-76
2021/04/02 06:32:08;;;;;;;56.67;28.85;;;10.00;64.10;;;;;;5017335;28;20087;-76
2021/04/02 06:34:43;;;;;;;51.30;26.95;;;10.10;64.10;;;;;;5017593;28;20056;-77
2021/04/02 06:37:08;;;;;;;55.15;28.90;;;10.20;64.00;;;;;;5016039;28;20029;-76
2021/04/02 06:39:35;;;;;;;49.80;26.50;;;10.20;64.60;;;;;;5016878;28;20141;-76
2021/04/02 06:42:03;;;;;;;48.92;26.75;;;10.30;65.30;;;;;;5016088;28;20112;-76
2021/04/02 06:44:31;;;;;;;43.95;25.48;;;10.30;65.70;;;;;;5016621;28;20042;-77
2021/04/02 06:46:58;;;;;;;61.92;27.45;;;10.30;65.80;;;;;;5016136;28;20029;-77
2021/04/02 06:49:25;;;;;;;41.80;24.30;;;10.50;66.00;;;;;;4996052;28;20076;-76
2021/04/02 06:51:51;;;;;;;45.53;24.80;;;10.70;65.90;;;;;;5004312;28;20036;-76
2021/04/02 06:54:20;;;;;;;39.58;22.83;;;10.90;65.50;;;;;;4987621;28;20076;-75
2021/04/02 06:56:54;;;;;;;49.15;27.20;;;11.00;64.90;;;;;;4980773;28;20540;-75
2021/04/02 06:59:21;;;;;;;51.97;27.50;;;11.00;64.80;;;;;;4986448;28;20030;-75
2021/04/02 07:01:54;;;;;;;50.45;27.08;;;10.90;65.50;;;;;;4976561;28;20037;-74
2021/04/02 07:04:23;;;;;;;45.40;26.05;;;10.80;66.00;;;;;;4976663;28;20398;-75
2021/04/02 07:06:51;;;;;;;42.50;24.40;;;10.90;66.30;;;;;;4976335;28;20089;-75
2021/04/02 07:09:18;;;;;;;50.55;24.23;;;10.90;66.70;;;;;;4976835;28;20026;-74
2021/04/02 07:11:47;;;;;;;41.97;24.15;;;11.00;66.50;;;;;;4976265;28;20177;-74
2021/04/02 07:14:13;;;;;;;49.13;26.42;;;11.10;66.00;;;;;;4979056;28;20026;-74
2021/04/02 07:16:40;;;;;;;44.30;26.17;;;11.20;65.80;;;;;;5005706;28;20026;-74
2021/04/02 07:19:06;;;;;;;42.70;23.23;;;10.90;66.20;;;;;;5005171;28;20032;-73
2021/04/02 07:21:33;;;;;;;43.67;23.17;;;11.00;66.60;;;;;;5031754;28;20034;-74
2021/04/02 07:24:02;;;;;;;42.38;22.95;;;11.00;66.50;;;;;;5015690;28;20037;-74
2021/04/02 07:26:28;;;;;;;44.85;23.05;;;11.20;66.20;;;;;;5012264;28;20025;-74
2021/04/02 07:28:55;;;;;;;41.33;22.80;;;11.30;65.90;;;;;;5015230;28;20552;-74
2021/04/02 07:31:22;;;;;;;44.38;24.13;;;11.20;65.80;;;;;;5015271;28;20490;-74
2021/04/02 07:33:50;;;;;;;49.58;22.45;;;11.20;66.10;;;;;;5015326;28;20049;-76
2021/04/02 07:36:21;;;;;;;39.88;21.73;;;11.20;66.10;;;;;;5015319;28;20029;-75
2021/04/02 07:38:52;;;;;;;43.53;21.95;;;11.10;66.20;;;;;;5015436;28;20036;-75
2021/04/02 07:41:18;;;;;;;42.97;21.95;;;11.10;66.50;;;;;;5015338;28;20083;-73
2021/04/02 07:43:57;;;;;;;40.63;22.27;;;11.10;66.30;;;;;;5015112;28;20029;-75
2021/04/02 07:46:25;;;;;;;38.03;20.15;;;11.20;65.80;;;;;;5015374;28;20543;-74
2021/04/02 07:49:08;;;;;;;38.85;20.17;;;11.30;65.40;;;;;;5016305;28;20026;-74
2021/04/02 07:51:41;;;;;;;36.55;20.25;;;11.50;64.70;;;;;;5019448;28;20072;-74
2021/04/02 07:54:19;;;;;;;32.00;14.35;;;11.40;64.20;;;;;;5037272;28;20427;-74
2021/04/02 07:56:52;;;;;;;35.20;16.90;;;11.50;66.90;;;;;;5037245;28;20036;-74
2021/04/02 07:59:17;;;;;;;24.65;15.60;;;12.00;68.20;;;;;;5019725;28;20026;-76
2021/04/02 08:01:58;;;;;;;27.83;13.52;;;12.50;65.20;;;;;;5036966;28;20033;-74
2021/04/02 08:04:53;;;;;;;23.13;11.57;;;13.00;64.80;;;;;;5037325;28;20390;-74
2021/04/02 08:07:31;;;;;;;19.00;11.25;;;13.40;60.60;;;;;;5029881;28;20049;-74
2021/04/02 08:09:56;;;;;;;27.52;12.95;;;13.90;58.40;;;;;;5028276;28;20033;-76
2021/04/02 08:12:23;;;;;;;20.85;10.55;;;14.20;56.10;;;;;;5029503;28;20067;-75
2021/04/02 08:14:51;;;;;;;33.53;11.27;;;14.20;54.50;;;;;;5031639;28;20136;-75
2021/04/02 08:17:28;;;;;;;24.38;10.35;;;14.40;53.30;;;;;;5035693;28;20389;-75
2021/04/02 08:20:05;;;;;;;16.08;9.02;;;14.50;52.60;;;;;;5038494;28;20041;-75
2021/04/02 08:22:33;;;;;;;17.17;9.68;;;14.70;51.80;;;;;;5037053;28;20037;-75
2021/04/02 08:25:01;;;;;;;18.50;10.13;;;14.90;51.50;;;;;;5020711;28;20025;-75
2021/04/02 08:27:30;;;;;;;21.55;10.00;;;14.90;50.20;;;;;;5034777;28;20029;-76
2021/04/02 08:30:04;;;;;;;20.42;10.60;;;14.90;50.40;;;;;;5023474;28;20021;-75
2021/04/02 08:32:49;;;;;;;21.15;10.48;;;14.60;50.10;;;;;;5024706;28;20057;-76
2021/04/02 08:35:15;;;;;;;17.92;10.02;;;14.70;50.50;;;;;;5021806;28;20536;-75
2021/04/02 08:38:02;;;;;;;17.30;8.68;;;14.50;50.50;;;;;;5020114;28;20030;-74
2021/04/02 08:40:28;;;;;;;17.77;9.18;;;14.60;52.00;;;;;;5020732;28;20457;-75
2021/04/02 08:43:04;;;;;;;19.08;11.48;;;14.80;50.70;;;;;;5020508;28;20033;-76
2021/04/02 08:45:35;;;;;;;17.02;10.23;;;15.00;49.50;;;;;;5019332;28;20049;-75
2021/04/02 08:48:02;;;;;;;20.48;10.93;;;15.20;49.60;;;;;;5018732;28;20029;-76
2021/04/02 08:50:28;;;;;;;14.55;9.27;;;15.40;48.60;;;;;;5018344;28;20025;-75
2021/04/02 08:53:02;;;;;;;17.05;8.90;;;15.40;47.90;;;;;;5036342;28;20030;-77
2021/04/02 08:55:27;;;;;;;13.60;8.93;;;15.40;47.00;;;;;;5018221;28;20056;-76
2021/04/02 08:57:53;;;;;;;15.88;8.27;;;15.30;48.10;;;;;;5036177;28;20100;-76
2021/04/02 09:00:19;;;;;;;15.90;8.90;;;15.60;48.20;;;;;;5017376;28;20035;-77
2021/04/02 09:02:45;;;;;;;14.30;8.30;;;15.80;47.30;;;;;;5017407;28;20037;-77
2021/04/02 09:05:12;;;;;;;16.85;7.90;;;16.10;46.60;;;;;;5017995;28;20030;-77
2021/04/02 09:07:41;;;;;;;13.05;8.07;;;16.10;45.10;;;;;;5017599;28;20501;-77
2021/04/02 09:10:15;;;;;;;16.95;8.40;;;16.20;44.80;;;;;;5018072;28;20362;-77
2021/04/02 09:12:49;;;;;;;11.90;6.55;;;16.30;43.90;;;;;;5035911;28;20022;-74
2021/04/02 09:15:28;;;;;;;12.95;6.75;;;15.40;44.70;;;;;;5018189;28;20145;-77
2021/04/02 09:17:53;;;;;;;13.00;8.25;;;15.70;45.60;;;;;;5018080;28;20030;-77
2021/04/02 09:20:19;;;;;;;17.17;7.30;;;16.00;44.90;;;;;;5018272;28;20036;-77
2021/04/02 09:22:46;;;;;;;10.25;6.18;;;16.10;44.70;;;;;;5035817;28;20029;-74
2021/04/02 09:25:23;;;;;;;9.88;6.40;;;16.40;44.70;;;;;;5018081;28;20021;-74
2021/04/02 09:27:49;;;;;;;11.27;6.88;;;16.50;44.00;;;;;;5017756;28;20072;-76
2021/04/02 09:30:25;;;;;;;13.50;7.60;;;16.80;43.40;;;;;;5018210;28;20060;-78
2021/04/02 09:32:52;;;;;;;17.85;8.45;;;17.00;43.20;;;;;;5017810;28;20017;-77
2021/04/02 09:35:18;;;;;;;17.38;9.20;;;17.00;42.30;;;;;;5017792;28;20021;-77
2021/04/02 09:37:44;;;;;;;14.25;8.65;;;16.40;41.90;;;;;;5017011;28;20025;-76
2021/04/02 09:40:10;;;;;;;15.30;9.52;;;15.90;43.30;;;;;;5017221;28;20029;-75
2021/04/02 09:42:37;;;;;;;18.00;10.05;;;15.70;44.20;;;;;;5017285;28;20044;-77
2021/04/02 09:45:09;;;;;;;18.40;10.60;;;15.70;44.90;;;;;;5017519;28;20021;-76
2021/04/02 09:47:53;;;;;;;18.48;9.55;;;15.60;46.10;;;;;;4985805;28;20405;-74
2021/04/02 09:50:20;;;;;;;18.35;11.30;;;15.60;45.50;;;;;;5031725;28;20496;-76
2021/04/02 09:52:46;;;;;;;17.52;10.90;;;15.60;45.50;;;;;;5010388;28;20025;-76
2021/04/02 09:55:13;;;;;;;18.75;11.15;;;14.90;47.10;;;;;;5029180;28;20029;-76
2021/04/02 09:57:39;;;;;;;20.13;11.13;;;14.60;48.60;;;;;;5022399;28;20034;-74
2021/04/02 10:00:07;;;;;;;20.15;11.52;;;14.60;49.10;;;;;;5007198;28;20112;-74
2021/04/02 10:02:34;;;;;;;20.92;11.93;;;14.70;49.20;;;;;;5004493;28;20115;-75
2021/04/02 10:05:00;;;;;;;23.25;14.27;;;15.00;48.80;;;;;;5030585;28;20049;-74
2021/04/02 10:07:26;;;;;;;20.42;11.73;;;15.40;48.30;;;;;;5024282;28;20046;-77
2021/04/02 10:09:51;;;;;;;23.05;12.93;;;15.50;47.80;;;;;;5022822;28;20522;-77
2021/04/02 10:12:17;;;;;;;20.30;11.93;;;15.20;47.30;;;;;;5009975;28;20116;-77
2021/04/02 10:14:43;;;;;;;26.48;14.20;;;15.30;47.20;;;;;;5034515;28;20028;-78
2021/04/02 10:17:11;;;;;;;22.42;13.57;;;15.70;47.00;;;;;;5016434;28;20036;-77
2021/04/02 10:19:38;;;;;;;24.35;13.70;;;16.00;46.00;;;;;;5016678;28;20017;-76
2021/04/02 10:22:05;;;;;;;21.15;12.50;;;16.20;45.00;;;;;;5016501;28;20038;-76
2021/04/02 10:24:31;;;;;;;20.60;12.32;;;16.30;44.60;;;;;;5000209;28;20064;-75
2021/04/02 10:26:58;;;;;;;25.75;12.25;;;16.50;44.50;;;;;;5016873;28;20067;-77
2021/04/02 10:29:24;;;;;;;21.05;11.93;;;16.20;43.50;;;;;;5017776;28;20060;-77
2021/04/02 10:31:50;;;;;;;18.75;11.07;;;16.50;43.80;;;;;;5000821;28;20033;-77
2021/04/02 10:34:16;;;;;;;20.85;12.18;;;16.80;43.80;;;;;;5017204;28;20446;-78
2021/04/02 10:36:42;;;;;;;23.02;13.93;;;17.30;43.30;;;;;;5021632;28;20658;-77
2021/04/02 10:39:09;;;;;;;23.50;11.75;;;17.20;42.00;;;;;;5001587;28;20470;-77
2021/04/02 10:41:37;;;;;;;18.38;11.52;;;17.50;41.70;;;;;;5034398;28;20045;-78
2021/04/02 10:44:03;;;;;;;16.83;10.82;;;17.70;41.10;;;;;;5017459;28;20112;-78
2021/04/02 10:46:29;;;;;;;20.05;10.45;;;17.80;40.20;;;;;;5024110;28;20075;-75
2021/04/02 10:48:54;;;;;;;17.48;11.68;;;17.70;40.00;;;;;;5036881;28;20029;-77
2021/04/02 10:51:21;;;;;;;20.67;11.52;;;16.80;40.90;;;;;;5035574;28;20020;-77
2021/04/02 10:53:47;;;;;;;19.05;10.70;;;16.50;42.40;;;;;;5017087;28;20029;-76
2021/04/02 10:56:13;;;;;;;19.00;10.15;;;16.90;42.80;;;;;;5020908;28;20473;-76
2021/04/02 10:58:38;;;;;;;19.85;11.02;;;17.30;42.20;;;;;;5017453;28;20026;-74
2021/04/02 11:01:04;;;;;;;20.02;12.02;;;17.30;41.00;;;;;;5017179;28;20367;-78
2021/04/02 11:03:29;;;;;;;21.17;12.15;;;16.80;40.90;;;;;;5016704;28;20074;-78
2021/04/02 11:05:55;;;;;;;19.15;11.95;;;17.00;41.20;;;;;;5034013;28;20141;-77
2021/04/02 11:08:21;;;;;;;20.05;12.00;;;17.20;41.30;;;;;;5016147;28;20497;-78
2021/04/02 11:10:46;;;;;;;19.70;11.52;;;17.50;40.70;;;;;;5015672;28;20112;-76
2021/04/02 11:13:12;;;;;;;21.83;11.52;;;17.40;40.20;;;;;;5033248;28;20454;-75
2021/04/02 11:15:38;;;;;;;22.92;13.07;;;16.80;40.90;;;;;;5015467;28;20040;-76
2021/04/02 11:18:04;;;;;;;20.17;12.02;;;16.60;42.10;;;;;;5015522;28;20026;-76
2021/04/02 11:20:30;;;;;;;20.13;12.27;;;16.60;42.40;;;;;;5033201;28;20030;-76
2021/04/02 11:22:57;;;;;;;26.13;13.98;;;16.60;42.40;;;;;;5015202;28;20530;-76
2021/04/02 11:25:23;;;;;;;24.75;13.57;;;16.10;42.70;;;;;;5015443;28;20018;-77
2021/04/02 11:27:49;;;;;;;21.90;13.32;;;16.40;43.10;;;;;;5015215;28;20374;-75
2021/04/02 11:30:16;;;;;;;19.23;12.55;;;16.90;42.50;;;;;;5015142;28;20026;-75
2021/04/02 11:32:43;;;;;;;23.65;12.45;;;17.10;41.10;;;;;;5033107;28;20032;-75
2021/04/02 11:35:10;;;;;;;20.13;12.75;;;17.50;40.00;;;;;;5015334;28;20030;-76
2021/04/02 11:37:37;;;;;;;21.63;12.55;;;17.80;39.30;;;;;;5015201;28;20018;-74
2021/04/02 11:40:05;;;;;;;18.10;12.02;;;17.70;39.10;;;;;;4982739;28;20477;-78
2021/04/02 11:42:31;;;;;;;18.55;11.00;;;17.60;38.50;;;;;;5015130;28;20087;-77
2021/04/02 11:44:57;;;;;;;15.90;8.13;;;17.90;38.30;;;;;;4998738;28;20033;-74
2021/04/02 11:47:22;;;;;;;11.23;7.93;;;18.30;38.20;;;;;;5032838;28;20029;-75
2021/04/02 11:49:49;;;;;;;13.80;8.82;;;18.90;37.50;;;;;;5014764;28;20462;-75
2021/04/02 11:52:15;;;;;;;17.00;9.82;;;19.50;36.60;;;;;;5015147;28;20082;-75
2021/04/02 11:54:41;;;;;;;15.48;9.30;;;19.80;35.20;;;;;;5032685;28;20093;-75
2021/04/02 11:57:07;;;;;;;16.00;7.97;;;19.70;34.30;;;;;;5015373;28;20021;-75
2021/04/02 11:59:32;;;;;;;16.15;7.68;;;19.90;34.00;;;;;;5014927;28;20505;-77
2021/04/02 12:01:58;;;;;;;12.57;7.80;;;20.10;33.50;;;;;;5032593;28;20120;-77
2021/04/02 12:04:24;;;;;;;10.95;7.43;;;20.40;33.40;;;;;;5032711;28;20021;-77
2021/04/02 12:06:50;;;;;;;12.45;7.75;;;20.30;32.40;;;;;;5021062;28;20095;-76
2021/04/02 12:09:15;;;;;;;11.98;7.93;;;20.40;32.10;;;;;;5025014;28;20029;-75
2021/04/02 12:11:41;;;;;;;14.95;8.05;;;19.50;32.00;;;;;;5026504;28;20026;-75
2021/04/02 12:14:07;;;;;;;14.70;7.90;;;18.50;33.00;;;;;;5029807;28;20115;-75
2021/04/02 12:16:34;;;;;;;13.18;7.10;;;18.50;33.80;;;;;;5032140;28;20085;-77
2021/04/02 12:19:00;;;;;;;12.95;8.30;;;18.80;34.00;;;;;;5031212;28;20033;-76
2021/04/02 12:21:26;;;;;;;12.15;8.60;;;19.10;33.90;;;;;;5036782;28;20032;-77
2021/04/02 12:23:52;;;;;;;10.85;8.10;;;18.90;33.50;;;;;;5022733;28;20120;-77
2021/04/02 12:26:17;;;;;;;14.65;8.30;;;18.80;33.40;;;;;;5018790;28;20067;-77
2021/04/02 12:28:43;;;;;;;12.15;7.90;;;19.10;33.50;;;;;;5015435;28;20025;-75
2021/04/02 12:31:09;;;;;;;13.38;8.60;;;18.90;33.40;;;;;;5014903;28;20044;-76
2021/04/02 12:33:34;;;;;;;12.52;7.85;;;19.20;33.60;;;;;;5015081;28;20025;-77
2021/04/02 12:36:00;;;;;;;12.13;7.75;;;19.50;33.80;;;;;;5017471;28;20029;-75
2021/04/02 12:38:26;;;;;;;17.83;8.77;;;20.10;33.80;;;;;;5018666;28;20025;-76